Time;durP1;ratioP1;P1;durP2;ratioP2;P2;SDS_P1;SDS_P2;PMS_P1;PMS_P2;Temp;Humidity;BMP_temperature;BMP_pressure;BME280_temperature;BME280_humidity;BME280_pressure;Samples;Min_cycle;Max_cycle;Signal;HPM_P1;HPM_P2
2023/05/07 00:00:22;;;;;;;0.50;0.50;;;;;;;;;;5053709;28;20388;-78
2023/05/07 00:02:48;;;;;;;0.70;0.47;;;21.10;87.90;;;;;;5053560;28;20184;-78
2023/05/07 00:05:14;;;;;;;0.60;0.60;;;20.60;65.80;;;;;;5053621;28;20512;-78
2023/05/07 00:07:40;;;;;;;0.85;0.85;;;;;;;;;;5053653;28;20025;-78
2023/05/07 00:10:06;;;;;;;2.03;0.88;;;21.00;60.90;;;;;;5053499;28;20060;-78
2023/05/07 00:12:33;;;;;;;0.50;0.50;;;21.30;88.40;;;;;;5053451;28;20025;-78
2023/05/07 00:15:00;;;;;;;1.38;0.80;;;20.90;58.40;;;;;;5053336;28;20060;-78
2023/05/07 00:17:26;;;;;;;1.10;0.73;;;;;;;;;;5053270;28;20467;-78
2023/05/07 00:19:52;;;;;;;0.68;0.60;;;21.20;88.00;;;;;;5053270;28;20035;-78
2023/05/07 00:22:18;;;;;;;0.73;0.70;;;;;;;;;;5051880;28;20028;-78
2023/05/07 00:24:44;;;;;;;0.80;0.63;;;;;;;;;;5053222;28;20040;-79
2023/05/07 00:27:10;;;;;;;0.60;0.60;;;;;;;;;;5053289;28;20017;-79
2023/05/07 00:29:36;;;;;;;0.60;0.60;;;;;;;;;;5053419;28;20108;-78
2023/05/07 00:32:03;;;;;;;0.80;0.52;;;;;;;;;;5053239;28;20092;-78
2023/05/07 00:34:29;;;;;;;0.75;0.68;;;20.90;88.40;;;;;;5053156;28;20041;-78
2023/05/07 00:36:55;;;;;;;0.60;0.60;;;;;;;;;;5053180;28;20029;-79
2023/05/07 00:39:22;;;;;;;0.57;0.57;;;;;;;;;;5053122;28;20426;-78
2023/05/07 00:41:48;;;;;;;1.83;0.90;;;21.10;87.50;;;;;;5052905;28;20048;-78
2023/05/07 00:44:14;;;;;;;0.75;0.75;;;20.20;53.60;;;;;;5052880;28;20029;-78
2023/05/07 00:46:40;;;;;;;1.08;0.60;;;20.90;88.30;;;;;;5053017;28;20024;-78
2023/05/07 00:49:07;;;;;;;0.55;0.55;;;21.10;88.60;;;;;;5052624;28;20033;-78
2023/05/07 00:51:33;;;;;;;0.40;0.40;;;;;;;;;;5052891;28;20379;-78
2023/05/07 00:54:01;;;;;;;0.82;0.60;;;21.20;88.80;;;;;;5052472;28;20452;-78
2023/05/07 00:56:27;;;;;;;0.80;0.80;;;;;;;;;;5052590;28;20162;-78
2023/05/07 00:58:53;;;;;;;0.57;0.57;;;21.20;88.80;;;;;;5052523;28;20628;-78
2023/05/07 01:01:19;;;;;;;0.70;0.60;;;20.40;88.50;;;;;;5052561;28;20032;-78
2023/05/07 01:03:44;;;;;;;0.50;0.50;;;20.30;88.40;;;;;;5052452;28;20064;-78
2023/05/07 01:06:12;;;;;;;0.77;0.75;;;21.00;55.50;;;;;;5052362;28;20024;-79
2023/05/07 01:08:39;;;;;;;0.75;0.63;;;20.50;88.80;;;;;;5052369;28;20109;-79
2023/05/07 01:11:06;;;;;;;0.70;0.60;;;20.70;88.50;;;;;;5051223;28;20047;-78
2023/05/07 01:13:33;;;;;;;1.48;0.68;;;20.70;59.50;;;;;;5052057;28;20077;-79
2023/05/07 01:15:59;;;;;;;0.60;0.60;;;20.70;69.70;;;;;;5052099;28;20021;-78
2023/05/07 01:18:26;;;;;;;0.68;0.68;;;20.70;89.00;;;;;;5052502;28;20028;-78
2023/05/07 01:20:52;;;;;;;0.93;0.50;;;20.90;76.20;;;;;;5051140;28;20441;-78
2023/05/07 01:23:18;;;;;;;0.60;0.60;;;;;;;;;;5052131;28;20049;-78
2023/05/07 01:25:54;;;;;;;2.63;0.80;;;20.60;89.10;;;;;;5052447;28;20036;-78
2023/05/07 01:28:20;;;;;;;0.70;0.70;;;;;;;;;;5052410;28;20448;-79
2023/05/07 01:30:50;;;;;;;1.13;0.52;;;20.70;55.70;;;;;;5052301;28;20028;-79
2023/05/07 01:33:21;;;;;;;0.45;0.45;;;21.10;88.60;;;;;;5051908;28;20020;-79
2023/05/07 01:35:50;;;;;;;0.68;0.68;;;20.80;86.70;;;;;;5052148;28;20069;-79
2023/05/07 01:38:16;;;;;;;0.70;0.57;;;20.80;55.30;;;;;;5052007;28;20536;-79
2023/05/07 01:40:42;;;;;;;0.95;0.88;;;20.80;88.80;;;;;;5051961;28;20029;-79
2023/05/07 01:43:09;;;;;;;0.77;0.50;;;20.70;89.00;;;;;;5051821;28;20467;-78
2023/05/07 01:45:35;;;;;;;0.65;0.63;;;20.60;62.30;;;;;;5051836;28;20021;-79
2023/05/07 01:48:02;;;;;;;0.80;0.50;;;20.80;55.80;;;;;;5051790;28;20021;-78
2023/05/07 01:50:28;;;;;;;0.60;0.45;;;20.90;76.30;;;;;;5051887;28;20461;-78
2023/05/07 01:52:54;;;;;;;0.55;0.52;;;21.00;88.60;;;;;;5052562;28;20031;-79
2023/05/07 01:55:20;;;;;;;0.70;0.70;;;21.00;70.10;;;;;;5055830;28;20048;-78
2023/05/07 01:57:46;;;;;;;1.02;0.80;;;20.30;74.30;;;;;;5055871;28;20485;-72
2023/05/07 02:00:12;;;;;;;0.70;0.50;;;20.80;73.60;;;;;;5055803;28;20112;-72
2023/05/07 02:02:38;;;;;;;0.50;0.50;;;21.00;89.80;;;;;;5056098;28;20023;-72
2023/05/07 02:05:04;;;;;;;0.50;0.50;;;20.60;89.20;;;;;;5055809;28;20421;-72
2023/05/07 02:07:30;;;;;;;1.05;0.43;;;20.50;89.80;;;;;;5056091;28;20079;-72
2023/05/07 02:09:56;;;;;;;0.65;0.50;;;20.20;89.50;;;;;;5055733;28;20021;-72
2023/05/07 02:12:23;;;;;;;0.50;0.50;;;;;;;;;;5055899;28;20023;-72
2023/05/07 02:14:49;;;;;;;1.30;0.55;;;20.70;89.70;;;;;;5055623;28;20108;-72
2023/05/07 02:17:16;;;;;;;0.65;0.50;;;;;;;;;;5055815;28;20029;-72
2023/05/07 02:19:42;;;;;;;0.77;0.57;;;21.00;74.00;;;;;;5055547;28;20480;-72
2023/05/07 02:22:08;;;;;;;0.90;0.80;;;;;;;;;;5055565;28;20112;-72
2023/05/07 02:24:34;;;;;;;0.47;0.47;;;;;;;;;;5055424;28;20416;-72
2023/05/07 02:27:00;;;;;;;0.60;0.40;;;;;;;;;;5055471;28;20033;-71
2023/05/07 02:29:26;;;;;;;0.60;0.60;;;20.80;73.20;;;;;;5055273;28;20108;-71
2023/05/07 02:31:52;;;;;;;0.50;0.50;;;;;;;;;;5055370;28;20151;-72
2023/05/07 02:34:18;;;;;;;0.65;0.57;;;20.40;78.70;;;;;;5055408;28;20040;-72
2023/05/07 02:36:44;;;;;;;0.52;0.52;;;20.60;77.50;;;;;;5055210;28;20025;-72
2023/05/07 02:39:09;;;;;;;0.60;0.60;;;20.70;79.00;;;;;;5055172;28;20108;-71
2023/05/07 02:41:35;;;;;;;0.85;0.57;;;20.50;80.00;;;;;;5055025;28;20383;-72
2023/05/07 02:44:01;;;;;;;0.68;0.60;;;20.80;80.80;;;;;;5055140;28;20040;-72
2023/05/07 02:46:26;;;;;;;0.65;0.32;;;20.50;81.30;;;;;;5055071;28;20057;-72
2023/05/07 02:48:52;;;;;;;0.80;0.60;;;20.70;82.20;;;;;;5055285;28;20032;-72
2023/05/07 02:51:21;;;;;;;0.70;0.70;;;20.70;83.40;;;;;;5055306;28;20383;-72
2023/05/07 02:53:48;;;;;;;0.55;0.55;;;;;;;;;;5054732;28;20499;-72
2023/05/07 02:56:14;;;;;;;0.35;0.32;;;20.70;76.00;;;;;;5055160;28;20108;-72
2023/05/07 02:58:41;;;;;;;0.52;0.52;;;20.40;85.00;;;;;;5054751;28;20017;-72
2023/05/07 03:01:08;;;;;;;0.82;0.50;;;20.80;56.00;;;;;;5054769;28;20029;-72
2023/05/07 03:03:34;;;;;;;0.55;0.40;;;20.10;85.30;;;;;;5054683;28;20078;-72
2023/05/07 03:06:00;;;;;;;0.80;0.57;;;20.40;85.90;;;;;;5054985;28;20059;-72
2023/05/07 03:08:27;;;;;;;0.75;0.63;;;20.60;85.60;;;;;;5054786;28;20044;-71
2023/05/07 03:10:53;;;;;;;0.43;0.40;;;20.40;85.50;;;;;;5054957;28;20021;-72
2023/05/07 03:13:19;;;;;;;0.52;0.50;;;20.80;85.20;;;;;;5054272;28;20026;-72
2023/05/07 03:15:45;;;;;;;0.93;0.40;;;20.80;85.30;;;;;;5054599;28;20029;-72
2023/05/07 03:18:11;;;;;;;0.70;0.65;;;;;;;;;;5054687;28;20025;-72
2023/05/07 03:20:38;;;;;;;0.70;0.43;;;;;;;;;;5054670;28;20029;-72
2023/05/07 03:23:04;;;;;;;1.20;0.50;;;20.30;66.30;;;;;;5054635;28;20033;-72
2023/05/07 03:25:30;;;;;;;0.47;0.47;;;;;;;;;;5054229;28;20098;-72
2023/05/07 03:27:56;;;;;;;0.73;0.40;;;20.80;85.20;;;;;;5054634;28;20091;-72
2023/05/07 03:30:23;;;;;;;1.60;0.50;;;20.70;85.30;;;;;;5054557;28;20428;-72
2023/05/07 03:32:49;;;;;;;0.60;0.60;;;20.50;85.40;;;;;;5054108;28;20052;-72
2023/05/07 03:35:15;;;;;;;0.70;0.60;;;20.50;85.60;;;;;;5054398;28;20463;-71
2023/05/07 03:37:41;;;;;;;0.52;0.40;;;;;;;;;;5054376;28;20071;-72
2023/05/07 03:40:09;;;;;;;0.85;0.52;;;;;;;;;;5054053;28;20056;-72
2023/05/07 03:42:36;;;;;;;1.25;0.73;;;20.50;59.70;;;;;;5054327;28;20033;-72
2023/05/07 03:45:02;;;;;;;0.50;0.50;;;20.40;83.20;;;;;;5054376;28;20021;-72
2023/05/07 03:47:28;;;;;;;0.95;0.65;;;20.40;86.30;;;;;;5053991;28;20021;-72
2023/05/07 03:49:55;;;;;;;1.55;0.70;;;20.60;86.60;;;;;;5054099;28;20025;-72
2023/05/07 03:52:25;;;;;;;0.32;0.30;;;20.50;86.50;;;;;;5053826;28;20506;-72
2023/05/07 03:54:52;;;;;;;0.93;0.50;;;20.50;54.30;;;;;;5053718;28;20120;-72
2023/05/07 03:57:19;;;;;;;0.52;0.50;;;20.70;86.90;;;;;;5054041;28;20074;-72
2023/05/07 03:59:45;;;;;;;0.95;0.70;;;20.70;86.90;;;;;;5053628;28;20021;-72
2023/05/07 04:02:11;;;;;;;0.70;0.50;;;;;;;;;;5053822;28;20075;-72
2023/05/07 04:04:38;;;;;;;1.35;0.55;;;;;;;;;;5053912;28;20021;-72
2023/05/07 04:07:04;;;;;;;0.40;0.40;;;20.40;82.80;;;;;;5053817;28;20483;-72
2023/05/07 04:09:30;;;;;;;0.70;0.60;;;20.50;87.00;;;;;;5053797;28;20025;-72
2023/05/07 04:11:56;;;;;;;0.50;0.50;;;20.20;86.70;;;;;;5053590;28;20159;-72
2023/05/07 04:14:22;;;;;;;0.75;0.68;;;20.60;86.90;;;;;;5053737;28;20112;-71
2023/05/07 04:16:48;;;;;;;1.67;0.70;;;20.70;86.90;;;;;;5053110;28;20017;-72
2023/05/07 04:19:14;;;;;;;0.60;0.60;;;20.40;87.00;;;;;;5053277;28;20479;-72
2023/05/07 04:21:40;;;;;;;0.80;0.70;;;20.50;87.10;;;;;;5053573;28;20099;-72
2023/05/07 04:24:07;;;;;;;0.77;0.60;;;;;;;;;;5053597;28;20471;-72
2023/05/07 04:26:33;;;;;;;0.70;0.70;;;20.40;87.30;;;;;;5053525;28;20029;-72
2023/05/07 04:29:00;;;;;;;0.60;0.60;;;;;;;;;;5053138;28;20024;-72
2023/05/07 04:31:26;;;;;;;0.52;0.52;;;20.40;78.40;;;;;;5053386;28;20436;-72
2023/05/07 04:33:52;;;;;;;3.78;0.50;;;;;;;;;;5052885;28;20112;-72
2023/05/07 04:36:18;;;;;;;1.58;0.68;;;20.10;87.20;;;;;;5053214;28;20025;-71
2023/05/07 04:38:45;;;;;;;0.50;0.40;;;20.40;87.20;;;;;;5053121;28;20071;-71
2023/05/07 04:41:13;;;;;;;0.40;0.40;;;20.30;54.70;;;;;;5053158;28;20057;-71
2023/05/07 04:43:39;;;;;;;0.63;0.50;;;20.40;87.40;;;;;;5052963;28;20040;-71
2023/05/07 04:46:06;;;;;;;0.70;0.52;;;;;;;;;;5053055;28;20048;-71
2023/05/07 04:48:32;;;;;;;0.55;0.40;;;20.40;83.20;;;;;;5052696;28;20033;-71
2023/05/07 04:50:58;;;;;;;1.17;0.50;;;20.60;87.20;;;;;;5052946;28;20027;-72
2023/05/07 04:53:24;;;;;;;0.88;0.57;;;20.50;87.30;;;;;;5052517;28;20025;-71
2023/05/07 04:55:56;;;;;;;0.65;0.50;;;20.10;87.50;;;;;;5052500;28;20077;-71
2023/05/07 04:58:22;;;;;;;1.48;0.60;;;20.40;76.70;;;;;;5052837;28;20021;-71
2023/05/07 05:00:49;;;;;;;0.82;0.63;;;20.30;87.80;;;;;;5052849;28;20017;-71
2023/05/07 05:03:15;;;;;;;0.70;0.60;;;20.50;87.80;;;;;;5051274;28;20028;-71
2023/05/07 05:05:40;;;;;;;1.05;0.60;;;20.30;87.60;;;;;;5052455;28;20025;-71
2023/05/07 05:08:06;;;;;;;1.50;0.68;;;20.30;86.80;;;;;;5052358;28;20040;-71
2023/05/07 05:10:32;;;;;;;0.60;0.50;;;20.10;82.80;;;;;;5052318;28;20479;-72
2023/05/07 05:12:58;;;;;;;0.40;0.40;;;;;;;;;;5052109;28;20021;-71
2023/05/07 05:15:24;;;;;;;0.75;0.60;;;20.50;75.60;;;;;;5052483;28;20032;-71
2023/05/07 05:17:50;;;;;;;0.60;0.60;;;;;;;;;;5052388;28;20388;-71
2023/05/07 05:20:16;;;;;;;0.63;0.47;;;;;;;;;;5052282;28;20032;-71
2023/05/07 05:22:42;;;;;;;1.38;0.63;;;20.10;63.40;;;;;;5052158;28;20056;-71
2023/05/07 05:25:08;;;;;;;0.93;0.70;;;;;;;;;;5052080;28;20060;-71
2023/05/07 05:27:34;;;;;;;0.80;0.45;;;21.90;55.70;;;;;;5051514;28;20086;-71
2023/05/07 05:30:00;;;;;;;1.42;0.70;;;;;;;;;;5050741;28;20029;-71
2023/05/07 05:32:26;;;;;;;0.73;0.73;;;20.20;87.20;;;;;;5051961;28;20032;-71
2023/05/07 05:34:52;;;;;;;0.60;0.57;;;;;;;;;;5052030;28;20033;-71
2023/05/07 05:37:18;;;;;;;1.40;0.73;;;;;;;;;;5051997;28;20025;-71
2023/05/07 05:39:44;;;;;;;1.02;0.60;;;;;;;;;;5051972;28;20090;-71
2023/05/07 05:42:10;;;;;;;0.55;0.50;;;;;;;;;;5051938;28;20364;-71
2023/05/07 05:44:36;;;;;;;1.00;0.70;;;;;;;;;;5051915;28;20033;-71
2023/05/07 05:47:02;;;;;;;0.70;0.70;;;;;;;;;;5051899;28;20052;-72
2023/05/07 05:49:28;;;;;;;0.65;0.50;;;;;;;;;;5051880;28;20107;-71
2023/05/07 05:51:54;;;;;;;0.88;0.85;;;;;;;;;;5051866;28;20240;-72
2023/05/07 05:54:20;;;;;;;0.90;0.90;;;;;;;;;;5051541;28;20059;-72
2023/05/07 05:56:46;;;;;;;0.82;0.80;;;;;;;;;;5051787;28;20155;-72
2023/05/07 05:59:12;;;;;;;1.30;1.00;;;;;;;;;;5051625;28;20032;-72
2023/05/07 06:01:38;;;;;;;1.40;1.30;;;;;;;;;;5051758;28;20452;-71
2023/05/07 06:04:04;;;;;;;1.48;1.30;;;;;;;;;;5051656;28;20090;-71
2023/05/07 06:06:31;;;;;;;1.58;1.48;;;;;;;;;;5051643;28;20471;-71
2023/05/07 06:08:57;;;;;;;1.70;1.60;;;20.10;88.90;;;;;;5051673;28;20444;-72
2023/05/07 06:11:22;;;;;;;2.28;2.10;;;19.70;88.80;;;;;;5051662;28;20045;-72
2023/05/07 06:13:48;;;;;;;2.53;2.42;;;20.40;87.00;;;;;;5051553;28;20037;-71
2023/05/07 06:16:14;;;;;;;2.42;2.33;;;20.20;55.70;;;;;;5050318;28;20055;-71
2023/05/07 06:18:40;;;;;;;2.33;2.22;;;;;;;;;;5051631;28;20033;-72
2023/05/07 06:21:06;;;;;;;3.15;2.95;;;20.20;89.40;;;;;;5051571;28;20032;-72
2023/05/07 06:23:32;;;;;;;3.33;3.13;;;20.20;68.00;;;;;;5051482;28;20060;-71
2023/05/07 06:25:58;;;;;;;3.70;3.50;;;;;;;;;;5051556;28;20036;-72
2023/05/07 06:28:24;;;;;;;3.90;3.70;;;;;;;;;;5051509;28;20025;-71
2023/05/07 06:30:50;;;;;;;4.30;4.00;;;;;;;;;;5051696;28;20392;-71
2023/05/07 06:33:16;;;;;;;4.40;4.00;;;;;;;;;;5051425;28;20090;-71
2023/05/07 06:35:42;;;;;;;4.70;4.40;;;;;;;;;;5050129;28;20552;-71
2023/05/07 06:38:08;;;;;;;4.20;3.95;;;;;;;;;;5051320;28;20052;-71
2023/05/07 06:40:34;;;;;;;3.85;3.65;;;;;;;;;;5054564;28;20389;-71
2023/05/07 06:43:00;;;;;;;4.70;4.40;;;;;;;;;;5055141;28;20032;-71
2023/05/07 06:45:26;;;;;;;4.75;4.28;;;;;;;;;;5055109;28;20446;-71
2023/05/07 06:47:52;;;;;;;4.45;4.15;;;;;;;;;;5054934;28;20033;-72
2023/05/07 06:50:18;;;;;;;4.68;4.40;;;;;;;;;;5055055;28;20122;-71
2023/05/07 06:52:44;;;;;;;4.80;4.47;;;;;;;;;;5054990;28;20202;-71
2023/05/07 06:55:11;;;;;;;4.80;4.50;;;;;;;;;;5054741;28;20053;-71
2023/05/07 06:57:36;;;;;;;5.20;4.80;;;20.10;89.40;;;;;;5054789;28;20028;-71
2023/05/07 07:00:02;;;;;;;4.65;4.35;;;20.40;88.70;;;;;;5054834;28;20033;-71
2023/05/07 07:02:28;;;;;;;4.57;4.30;;;20.10;89.30;;;;;;5055018;28;20018;-72
2023/05/07 07:04:54;;;;;;;4.50;4.20;;;;;;;;;;5054701;28;20051;-71
2023/05/07 07:07:20;;;;;;;4.43;4.20;;;;;;;;;;5054751;28;20151;-72
2023/05/07 07:09:46;;;;;;;7.22;4.07;;;;;;;;;;5054706;28;20483;-71
2023/05/07 07:12:12;;;;;;;4.00;3.80;;;;;;;;;;5054641;28;20079;-72
2023/05/07 07:14:38;;;;;;;3.83;3.63;;;;;;;;;;5054368;28;20037;-72
2023/05/07 07:17:05;;;;;;;4.57;4.28;;;;;;;;;;5054478;28;20025;-70
2023/05/07 07:19:30;;;;;;;3.97;3.72;;;20.10;89.50;;;;;;5054529;28;20479;-71
2023/05/07 07:21:56;;;;;;;4.30;4.00;;;20.10;65.60;;;;;;5054241;28;20021;-71
2023/05/07 07:24:22;;;;;;;3.88;3.67;;;;;;;;;;5054464;28;20525;-71
2023/05/07 07:26:48;;;;;;;3.97;3.67;;;;;;;;;;5054288;28;20029;-71
2023/05/07 07:29:14;;;;;;;4.10;3.80;;;;;;;;;;5054255;28;20411;-72
2023/05/07 07:31:40;;;;;;;3.92;3.72;;;;;;;;;;5054128;28;20040;-72
2023/05/07 07:34:06;;;;;;;3.72;3.53;;;;;;;;;;5054266;28;20032;-71
2023/05/07 07:36:32;;;;;;;3.72;3.53;;;;;;;;;;5053999;28;20036;-72
2023/05/07 07:38:58;;;;;;;3.13;2.92;;;;;;;;;;5054234;28;20037;-72
2023/05/07 07:41:24;;;;;;;4.28;3.55;;;;;;;;;;5054114;28;20040;-72
2023/05/07 07:43:50;;;;;;;3.30;3.10;;;;;;;;;;5053948;28;20104;-72
2023/05/07 07:46:16;;;;;;;3.17;2.97;;;;;;;;;;5054037;28;20104;-71
2023/05/07 07:48:42;;;;;;;3.17;2.97;;;;;;;;;;5053833;28;20394;-71
2023/05/07 07:51:08;;;;;;;3.00;2.80;;;20.10;85.70;;;;;;5053299;28;20387;-72
2023/05/07 07:53:34;;;;;;;2.90;2.67;;;;;;;;;;5054033;28;20028;-71
2023/05/07 07:56:01;;;;;;;3.38;2.75;;;;;;;;;;5053662;28;20415;-71
2023/05/07 07:58:27;;;;;;;2.78;2.58;;;20.50;90.20;;;;;;5053950;28;20021;-71
2023/05/07 08:00:55;;;;;;;2.40;2.30;;;20.50;90.20;;;;;;5053863;28;20423;-71
2023/05/07 08:03:22;;;;;;;2.30;2.20;;;;;;;;;;5053548;28;20028;-71
2023/05/07 08:05:50;;;;;;;2.50;2.38;;;20.40;65.60;;;;;;5053618;28;20032;-71
2023/05/07 08:08:16;;;;;;;1.95;1.85;;;;;;;;;;5053483;28;20029;-71
2023/05/07 08:10:42;;;;;;;2.22;2.00;;;;;;;;;;5053448;28;20028;-71
2023/05/07 08:13:08;;;;;;;2.05;1.95;;;;;;;;;;5053282;28;20043;-71
2023/05/07 08:15:34;;;;;;;1.73;1.63;;;;;;;;;;5053446;28;20100;-71
2023/05/07 08:18:00;;;;;;;1.80;1.70;;;;;;;;;;5053320;28;20052;-72
2023/05/07 08:20:26;;;;;;;2.17;1.92;;;20.40;60.90;;;;;;5053337;28;20487;-72
2023/05/07 08:22:52;;;;;;;3.33;1.80;;;;;;;;;;5053340;28;20021;-71
2023/05/07 08:25:18;;;;;;;1.95;1.85;;;;;;;;;;5053303;28;20068;-71
2023/05/07 08:27:44;;;;;;;1.80;1.70;;;;;;;;;;5053211;28;20148;-71
2023/05/07 08:30:11;;;;;;;1.70;1.60;;;20.40;80.60;;;;;;5053097;28;20020;-71
2023/05/07 08:32:36;;;;;;;1.35;1.25;;;20.40;90.50;;;;;;5053053;28;20025;-71
2023/05/07 08:35:02;;;;;;;2.53;1.73;;;20.00;60.20;;;;;;5052890;28;20514;-71
2023/05/07 08:37:28;;;;;;;1.40;1.30;;;;;;;;;;5052970;28;20028;-72
2023/05/07 08:39:54;;;;;;;1.60;1.50;;;;;;;;;;5052901;28;20106;-71
2023/05/07 08:42:22;;;;;;;1.35;1.25;;;20.50;58.40;;;;;;5053271;28;20418;-71
2023/05/07 08:44:53;;;;;;;1.50;1.17;;;20.70;90.80;;;;;;5052792;28;20430;-71
2023/05/07 08:47:19;;;;;;;1.75;1.65;;;20.40;90.70;;;;;;5052819;28;20045;-71
2023/05/07 08:49:45;;;;;;;2.25;1.33;;;;;;;;;;5052743;28;20036;-71
2023/05/07 08:52:12;;;;;;;1.40;1.15;;;20.60;64.80;;;;;;5052667;28;20104;-71
2023/05/07 08:54:38;;;;;;;1.00;1.00;;;20.40;56.60;;;;;;5052608;28;20055;-71
2023/05/07 08:57:04;;;;;;;1.35;1.02;;;;;;;;;;5052828;28;20086;-71
2023/05/07 08:59:30;;;;;;;1.92;1.15;;;20.50;88.10;;;;;;5052640;28;20090;-71
2023/05/07 09:01:56;;;;;;;1.08;1.00;;;20.50;69.20;;;;;;5052491;28;20475;-72
2023/05/07 09:04:22;;;;;;;1.10;0.85;;;;;;;;;;5052615;28;20037;-71
2023/05/07 09:06:48;;;;;;;1.05;1.00;;;;;;;;;;5052459;28;20028;-71
2023/05/07 09:09:20;;;;;;;1.25;1.10;;;20.80;55.50;;;;;;5052412;28;20033;-71
2023/05/07 09:11:46;;;;;;;2.78;1.08;;;;;;;;;;5052197;28;20037;-71
2023/05/07 09:14:12;;;;;;;1.52;1.13;;;;;;;;;;5052214;28;20049;-72
2023/05/07 09:16:38;;;;;;;1.30;0.70;;;;;;;;;;5052259;28;20479;-71
2023/05/07 09:19:04;;;;;;;0.80;0.80;;;21.00;80.20;;;;;;5052217;28;20033;-72
2023/05/07 09:21:30;;;;;;;1.00;0.82;;;;;;;;;;5052209;28;20395;-71
2023/05/07 09:23:56;;;;;;;1.45;0.98;;;;;;;;;;5052494;28;20483;-71
2023/05/07 09:26:23;;;;;;;1.25;1.13;;;21.20;59.50;;;;;;5052134;28;20020;-71
2023/05/07 09:28:48;;;;;;;1.58;1.00;;;21.00;90.80;;;;;;5052254;28;20025;-71
2023/05/07 09:31:14;;;;;;;0.70;0.70;;;21.30;84.70;;;;;;5052225;28;20082;-71
2023/05/07 09:33:40;;;;;;;1.05;0.90;;;20.40;59.70;;;;;;5051957;28;20032;-71
2023/05/07 09:36:07;;;;;;;1.52;1.08;;;21.20;58.40;;;;;;5052135;28;20139;-71
2023/05/07 09:38:34;;;;;;;1.35;1.00;;;21.50;90.70;;;;;;5052107;28;20122;-71
2023/05/07 09:41:03;;;;;;;1.48;1.17;;;21.00;90.50;;;;;;5052006;28;20025;-72
2023/05/07 09:43:35;;;;;;;2.05;0.93;;;21.60;90.40;;;;;;5051958;28;20098;-71
2023/05/07 09:46:14;;;;;;;1.75;0.88;;;21.20;65.50;;;;;;5052000;28;20089;-71
2023/05/07 09:48:44;;;;;;;1.02;0.93;;;21.50;90.50;;;;;;5052268;28;20047;-71
2023/05/07 09:51:31;;;;;;;1.23;0.80;;;21.10;69.40;;;;;;5052112;28;20058;-71
2023/05/07 09:54:01;;;;;;;1.05;0.73;;;21.10;58.40;;;;;;5051624;28;20041;-71
2023/05/07 09:56:27;;;;;;;1.42;0.93;;;21.40;58.00;;;;;;5052194;28;20032;-71
2023/05/07 09:58:55;;;;;;;1.10;0.80;;;21.50;90.60;;;;;;5051875;28;20036;-72
2023/05/07 10:01:22;;;;;;;1.25;0.98;;;21.60;58.30;;;;;;5051812;28;20032;-71
2023/05/07 10:03:50;;;;;;;1.00;0.75;;;21.70;60.50;;;;;;5051727;28;20146;-71
2023/05/07 10:06:16;;;;;;;1.40;0.90;;;;;;;;;;5051930;28;20021;-71
2023/05/07 10:08:43;;;;;;;1.08;1.00;;;24.30;59.40;;;;;;5051734;28;20029;-72
2023/05/07 10:11:09;;;;;;;0.80;0.80;;;21.70;58.20;;;;;;5051638;28;20494;-71
2023/05/07 10:13:36;;;;;;;1.67;0.90;;;;;;;;;;5050718;28;20127;-71
2023/05/07 10:16:04;;;;;;;1.42;0.80;;;22.40;58.30;;;;;;5055815;28;20092;-71
2023/05/07 10:18:33;;;;;;;0.70;0.70;;;21.80;59.40;;;;;;5055634;28;20357;-71
2023/05/07 10:21:17;;;;;;;0.82;0.60;;;21.90;58.20;;;;;;5054368;28;20387;-71
2023/05/07 10:23:47;;;;;;;0.90;0.65;;;21.80;90.30;;;;;;5055578;28;20033;-71
2023/05/07 10:26:14;;;;;;;1.02;0.70;;;21.80;90.50;;;;;;5055655;28;20025;-71
2023/05/07 10:28:48;;;;;;;1.80;0.98;;;22.00;58.30;;;;;;5055810;28;20044;-71
2023/05/07 10:31:50;;;;;;;0.65;0.65;;;21.80;68.70;;;;;;5055735;28;20399;-72
2023/05/07 10:34:22;;;;;;;1.13;0.82;;;21.70;87.40;;;;;;5055630;28;20368;-75
2023/05/07 10:36:50;;;;;;;1.10;0.63;;;22.00;58.60;;;;;;5055603;28;20021;-74
2023/05/07 10:39:16;;;;;;;1.02;0.70;;;22.40;90.90;;;;;;5055522;28;20436;-74
2023/05/07 10:41:42;;;;;;;2.05;0.82;;;22.40;90.60;;;;;;5055443;28;20052;-76
2023/05/07 10:44:08;;;;;;;0.98;0.65;;;22.40;90.90;;;;;;5055240;28;20037;-75
2023/05/07 10:46:35;;;;;;;0.80;0.80;;;22.20;90.90;;;;;;5054151;28;20048;-74
2023/05/07 10:49:05;;;;;;;1.20;0.80;;;22.40;91.00;;;;;;5055419;28;20021;-74
2023/05/07 10:52:21;;;;;;;1.00;0.90;;;22.50;91.00;;;;;;5055048;28;20464;-74
2023/05/07 10:54:47;;;;;;;0.77;0.77;;;22.10;90.90;;;;;;5054901;28;20110;-74
2023/05/07 10:57:31;;;;;;;0.90;0.80;;;22.30;56.40;;;;;;5055193;28;20035;-74
2023/05/07 10:59:57;;;;;;;1.48;0.73;;;22.70;91.10;;;;;;5055199;28;20036;-75
2023/05/07 11:02:24;;;;;;;1.70;0.80;;;;;;;;;;5055067;28;20027;-76
2023/05/07 11:05:24;;;;;;;1.75;0.63;;;22.40;56.70;;;;;;5054713;28;20037;-77
2023/05/07 11:08:01;;;;;;;0.75;0.50;;;22.40;56.80;;;;;;5054799;28;20530;-80
2023/05/07 11:10:51;;;;;;;0.43;0.43;;;22.20;91.30;;;;;;5054991;28;20379;-75
2023/05/07 11:13:17;;;;;;;1.80;1.42;;;;;;;;;;5054514;28;20025;-75
2023/05/07 11:15:45;;;;;;;2.50;1.02;;;22.30;59.80;;;;;;5054736;28;20035;-76
2023/05/07 11:18:14;;;;;;;1.98;1.20;;;22.30;60.00;;;;;;5054765;28;20017;-75
2023/05/07 11:20:47;;;;;;;1.92;1.73;;;22.30;60.90;;;;;;5054274;28;20503;-74
2023/05/07 11:23:34;;;;;;;1.70;1.40;;;22.10;91.70;;;;;;5054553;28;20029;-78
2023/05/07 11:26:08;;;;;;;2.40;1.20;;;22.30;58.00;;;;;;5053139;28;20029;-76
2023/05/07 11:28:41;;;;;;;1.75;1.10;;;22.20;58.00;;;;;;5054152;28;20386;-76
2023/05/07 11:31:07;;;;;;;1.63;1.20;;;22.30;91.90;;;;;;5054076;28;20047;-77
2023/05/07 11:33:34;;;;;;;2.70;1.65;;;22.30;60.60;;;;;;5054250;28;20036;-76
2023/05/07 11:36:02;;;;;;;1.63;1.50;;;22.30;60.80;;;;;;5054104;28;20029;-77
2023/05/07 11:38:36;;;;;;;1.98;1.48;;;22.30;74.50;;;;;;5054063;28;20029;-76
2023/05/07 11:41:04;;;;;;;3.05;1.50;;;22.70;92.00;;;;;;5054451;28;20025;-79
2023/05/07 11:43:32;;;;;;;3.58;1.63;;;22.60;92.00;;;;;;5054314;28;20071;-79
2023/05/07 11:46:12;;;;;;;1.88;1.48;;;22.70;78.70;;;;;;5054021;28;20021;-78
2023/05/07 11:48:38;;;;;;;1.60;1.17;;;22.60;60.80;;;;;;5052782;28;20471;-79
2023/05/07 11:51:06;;;;;;;2.50;1.02;;;22.60;70.50;;;;;;5053893;28;20060;-79
2023/05/07 11:53:40;;;;;;;1.58;0.77;;;22.70;58.70;;;;;;5053895;28;20482;-77
2023/05/07 11:56:11;;;;;;;1.13;0.68;;;22.70;58.70;;;;;;5053674;28;20049;-80
2023/05/07 11:58:36;;;;;;;1.65;0.82;;;22.60;92.10;;;;;;5053807;28;20071;-78
2023/05/07 12:01:03;;;;;;;0.70;0.70;;;22.40;91.90;;;;;;5053718;28;20048;-78
2023/05/07 12:03:28;;;;;;;0.88;0.50;;;22.60;92.20;;;;;;5053904;28;20075;-79
2023/05/07 12:05:54;;;;;;;3.92;1.00;;;22.70;84.50;;;;;;5053670;28;20025;-77
2023/05/07 12:08:21;;;;;;;1.88;0.90;;;22.30;70.30;;;;;;5053571;28;20063;-78
2023/05/07 12:10:49;;;;;;;1.58;0.65;;;22.70;92.10;;;;;;5053491;28;20032;-78
2023/05/07 12:13:25;;;;;;;3.03;1.08;;;22.70;59.10;;;;;;5053440;28;20029;-78
2023/05/07 12:15:55;;;;;;;1.70;0.75;;;22.30;61.50;;;;;;5053635;28;20033;-78
2023/05/07 12:18:22;;;;;;;3.60;1.13;;;22.90;85.10;;;;;;5053839;28;20029;-78
2023/05/07 12:20:48;;;;;;;3.92;1.02;;;22.70;71.70;;;;;;5053263;28;20021;-78
2023/05/07 12:23:15;;;;;;;3.47;1.05;;;22.60;92.40;;;;;;5053598;28;20113;-78
2023/05/07 12:25:46;;;;;;;1.75;0.75;;;22.60;62.10;;;;;;5053547;28;20025;-78
2023/05/07 12:28:17;;;;;;;3.03;0.80;;;22.70;86.20;;;;;;5053572;28;20074;-78
2023/05/07 12:30:45;;;;;;;1.80;0.80;;;22.30;92.40;;;;;;5053539;28;20029;-78
2023/05/07 12:33:12;;;;;;;1.52;0.82;;;;;;;;;;5053323;28;20120;-78
2023/05/07 12:35:40;;;;;;;3.28;0.80;;;22.30;91.60;;;;;;5053370;28;20033;-78
2023/05/07 12:38:14;;;;;;;4.88;1.50;;;22.70;59.70;;;;;;5052908;28;20143;-78
2023/05/07 12:40:43;;;;;;;2.03;1.20;;;22.70;91.40;;;;;;5053357;28;20025;-78
2023/05/07 12:43:20;;;;;;;2.40;1.38;;;22.90;92.50;;;;;;5053320;28;20084;-77
2023/05/07 12:45:50;;;;;;;2.97;0.80;;;22.50;68.80;;;;;;5053175;28;20064;-76
2023/05/07 12:48:16;;;;;;;1.10;1.00;;;;;;;;;;5052940;28;20025;-76
2023/05/07 12:50:43;;;;;;;1.38;0.93;;;22.60;92.40;;;;;;5053074;28;20422;-78
2023/05/07 12:53:12;;;;;;;2.00;0.75;;;22.80;62.20;;;;;;5052690;28;20013;-77
2023/05/07 12:55:46;;;;;;;4.03;0.88;;;22.60;59.40;;;;;;5052518;28;20045;-77
2023/05/07 12:58:16;;;;;;;4.65;0.98;;;22.70;59.30;;;;;;5052784;28;20074;-78
2023/05/07 13:00:43;;;;;;;3.25;1.10;;;;;;;;;;5053051;28;20111;-73
2023/05/07 13:03:09;;;;;;;1.77;1.00;;;22.70;92.30;;;;;;5052887;28;20029;-73
2023/05/07 13:05:35;;;;;;;1.95;1.20;;;22.50;92.40;;;;;;5052653;28;20039;-73
2023/05/07 13:08:01;;;;;;;2.92;0.75;;;22.40;92.40;;;;;;5052475;28;20527;-73
2023/05/07 13:10:28;;;;;;;1.67;0.82;;;22.50;92.40;;;;;;5052532;28;20083;-74
2023/05/07 13:12:53;;;;;;;1.23;0.70;;;22.90;92.40;;;;;;5052389;28;20056;-73
2023/05/07 13:15:20;;;;;;;2.67;0.88;;;22.40;92.30;;;;;;5052341;28;20080;-73
2023/05/07 13:17:47;;;;;;;1.40;0.70;;;;;;;;;;5052414;28;20057;-73
2023/05/07 13:20:13;;;;;;;2.53;0.88;;;22.40;92.40;;;;;;5052341;28;20079;-73
2023/05/07 13:22:39;;;;;;;4.13;1.00;;;22.90;92.50;;;;;;5052351;28;20025;-73